Time;durP1;ratioP1;P1;durP2;ratioP2;P2;SDS_P1;SDS_P2;PMS_P1;PMS_P2;Temp;Humidity;BMP_temperature;BMP_pressure;BME280_temperature;BME280_humidity;BME280_pressure;Samples;Min_cycle;Max_cycle;Signal;HPM_P1;HPM_P2
2022/10/17 00:04:29;;;;;;;21.60;14.00;;;;;;;11.72;90.77;99651.22;214664;1310;22482;-74
2022/10/17 00:09:31;;;;;;;22.00;13.70;;;;;;;11.69;91.05;99651.39;214570;1310;23062;-74
2022/10/17 00:14:33;;;;;;;24.70;15.50;;;;;;;11.68;91.19;99654.98;214692;1309;25375;-74
2022/10/17 00:19:35;;;;;;;27.20;14.90;;;;;;;11.69;91.44;99653.90;214664;1310;22534;-74
2022/10/17 00:24:37;;;;;;;25.40;14.70;;;;;;;11.73;91.50;99654.38;214501;1310;23682;-75
2022/10/17 00:29:38;;;;;;;24.10;15.00;;;;;;;11.75;91.53;99661.83;214710;1310;22646;-74
2022/10/17 00:34:41;;;;;;;25.40;14.10;;;;;;;11.76;91.48;99661.28;214638;1309;22480;-75
2022/10/17 00:39:42;;;;;;;25.80;14.80;;;;;;;11.76;91.57;99664.45;214567;1310;22491;-74
2022/10/17 00:44:47;;;;;;;24.80;14.80;;;;;;;11.76;91.57;99664.63;214547;1310;23774;-74
2022/10/17 00:49:51;;;;;;;29.30;16.70;;;;;;;11.75;91.58;99669.09;214709;1310;25327;-76
2022/10/17 00:54:57;;;;;;;27.10;16.10;;;;;;;11.73;91.65;99671.13;214537;1309;24728;-75
2022/10/17 01:00:03;;;;;;;27.40;15.40;;;;;;;11.70;91.62;99667.92;214422;1310;24346;-73
2022/10/17 01:05:07;;;;;;;24.30;14.20;;;;;;;11.68;91.65;99663.73;214575;1310;24259;-74
2022/10/17 01:10:09;;;;;;;25.40;14.20;;;;;;;11.66;91.71;99666.11;214675;1310;25636;-74
2022/10/17 01:15:44;;;;;;;18.20;11.70;;;;;;;11.64;91.95;99668.38;214647;1310;22476;-74
2022/10/17 01:21:01;;;;;;;24.30;14.60;;;;;;;11.65;92.19;99668.21;214442;1310;22474;-74
2022/10/17 01:26:22;;;;;;;24.10;13.80;;;;;;;11.63;91.96;99670.79;214475;1310;22546;-75
2022/10/17 01:31:33;;;;;;;20.50;13.40;;;;;;;11.64;92.17;99672.08;214437;1309;25389;-74
2022/10/17 01:36:35;;;;;;;23.40;14.60;;;;;;;11.64;92.14;99677.88;214671;1310;22532;-74
2022/10/17 01:41:41;;;;;;;22.40;13.50;;;;;;;11.62;92.02;99674.27;214481;1294;22950;-74
2022/10/17 01:46:48;;;;;;;23.20;14.00;;;;;;;11.59;92.10;99667.21;214551;1310;25358;-74
2022/10/17 01:51:59;;;;;;;27.00;13.80;;;;;;;11.56;92.19;99664.52;214673;1310;25204;-74
2022/10/17 01:57:06;;;;;;;22.50;13.00;;;;;;;11.53;92.13;99666.30;214660;1310;25297;-76
2022/10/17 02:02:13;;;;;;;22.70;13.20;;;;;;;11.51;92.23;99666.04;214552;1310;25295;-74
2022/10/17 02:07:15;;;;;;;19.40;12.90;;;;;;;11.49;92.33;99666.70;214522;1310;125711;-74
2022/10/17 02:12:36;;;;;;;21.10;13.80;;;;;;;11.47;92.45;99673.56;214377;1310;24256;-73
2022/10/17 02:17:51;;;;;;;23.30;12.50;;;;;;;11.45;92.40;99671.90;214446;1310;25344;-73
2022/10/17 02:23:20;;;;;;;25.60;14.40;;;;;;;11.44;92.37;99668.42;214624;1310;22545;-75
2022/10/17 02:28:44;;;;;;;28.30;14.30;;;;;;;11.40;92.44;99673.48;214564;1310;22579;-75
2022/10/17 02:33:54;;;;;;;22.70;14.30;;;;;;;11.35;92.24;99674.08;214390;1310;25323;-75
2022/10/17 02:38:59;;;;;;;21.60;12.90;;;;;;;11.30;92.45;99676.66;214357;1309;24956;-74
2022/10/17 02:44:03;;;;;;;19.90;12.40;;;;;;;11.28;92.57;99681.49;214492;1310;22484;-74
2022/10/17 02:49:28;;;;;;;20.60;10.50;;;;;;;11.25;92.57;99687.18;214314;1310;24567;-75
2022/10/17 02:54:40;;;;;;;21.50;12.40;;;;;;;11.24;92.78;99682.08;214548;1310;23341;-74
2022/10/17 02:59:44;;;;;;;20.10;11.30;;;;;;;11.23;92.71;99680.10;214333;1310;22463;-74
2022/10/17 03:04:46;;;;;;;19.90;12.30;;;;;;;11.22;92.94;99687.08;214544;1310;24227;-74
2022/10/17 03:09:49;;;;;;;23.00;12.80;;;;;;;11.25;93.37;99695.55;214407;1310;22486;-74
2022/10/17 03:14:51;;;;;;;16.00;10.80;;;;;;;11.26;93.44;99695.33;214524;1309;23969;-74
2022/10/17 03:19:54;;;;;;;22.40;13.20;;;;;;;11.26;93.39;99698.23;214389;1304;22606;-74
2022/10/17 03:24:55;;;;;;;19.80;12.50;;;;;;;11.23;93.30;99703.38;214349;1310;22471;-74
2022/10/17 03:29:58;;;;;;;20.90;13.30;;;;;;;11.21;93.33;99708.90;214475;1304;22937;-73
2022/10/17 03:35:01;;;;;;;15.90;10.90;;;;;;;11.17;93.18;99708.54;214601;1310;22623;-74
2022/10/17 03:40:04;;;;;;;21.10;11.60;;;;;;;11.10;93.21;99710.41;214481;1310;25465;-74
2022/10/17 03:45:07;;;;;;;19.90;12.40;;;;;;;11.05;93.41;99709.39;214490;1310;24341;-74
2022/10/17 03:50:09;;;;;;;19.70;12.00;;;;;;;11.01;93.64;99708.22;214855;1310;22464;-73
2022/10/17 03:55:12;;;;;;;21.90;13.20;;;;;;;10.98;93.67;99713.84;214543;1304;22603;-74
2022/10/17 04:00:14;;;;;;;20.70;12.50;;;;;;;10.95;93.59;99716.36;214446;1310;26536;-75
2022/10/17 04:05:16;;;;;;;19.20;11.90;;;;;;;10.93;93.87;99722.09;214623;1304;22481;-74
2022/10/17 04:10:18;;;;;;;20.00;12.50;;;;;;;10.92;93.88;99727.20;214505;1310;22465;-74
2022/10/17 04:15:21;;;;;;;20.80;12.50;;;;;;;10.90;93.89;99726.34;214477;1310;24095;-74
2022/10/17 04:20:23;;;;;;;24.10;13.80;;;;;;;10.84;93.59;99728.10;214472;1310;24445;-75
2022/10/17 04:25:25;;;;;;;23.60;12.10;;;;;;;10.76;93.45;99734.25;214443;1310;22490;-74
2022/10/17 04:30:27;;;;;;;19.30;12.80;;;;;;;10.68;93.53;99732.58;214487;1306;23891;-75
2022/10/17 04:35:29;;;;;;;20.90;12.10;;;;;;;10.61;93.84;99734.81;214527;1304;24381;-74
2022/10/17 04:40:35;;;;;;;26.20;12.50;;;;;;;10.57;93.69;99734.00;214620;1310;22465;-74
2022/10/17 04:45:37;;;;;;;15.40;10.70;;;;;;;10.54;93.92;99734.70;214477;1310;22467;-74
2022/10/17 04:50:40;;;;;;;18.80;11.30;;;;;;;10.54;94.33;99729.23;214469;1304;22495;-74
2022/10/17 04:56:06;;;;;;;21.60;13.20;;;;;;;10.56;94.30;99728.16;214480;1310;22464;-74
2022/10/17 05:01:19;;;;;;;22.00;12.90;;;;;;;10.56;93.98;99732.92;214492;1310;22492;-75
2022/10/17 05:06:28;;;;;;;19.80;11.70;;;;;;;10.53;94.05;99734.85;214679;1310;22526;-74
2022/10/17 05:12:08;;;;;;;20.80;11.90;;;;;;;10.53;94.27;99738.11;213567;1317;22507;-75
2022/10/17 05:17:13;;;;;;;22.70;13.40;;;;;;;10.56;94.29;99737.05;214479;1310;22494;-74
2022/10/17 05:22:15;;;;;;;24.90;13.50;;;;;;;10.59;94.34;99745.41;214377;1310;22482;-76
2022/10/17 05:27:17;;;;;;;24.50;14.40;;;;;;;10.67;94.52;99750.48;214423;1310;22501;-74
2022/10/17 05:32:19;;;;;;;23.40;13.40;;;;;;;10.75;94.46;99758.33;214443;1309;22497;-74
2022/10/17 05:37:21;;;;;;;19.60;13.20;;;;;;;10.85;94.49;99760.95;214454;1310;25330;-75
2022/10/17 05:42:25;;;;;;;20.60;13.00;;;;;;;10.91;94.09;99768.47;214374;1310;25458;-74
2022/10/17 05:47:27;;;;;;;22.70;13.10;;;;;;;10.97;94.09;99770.36;215056;1288;25341;-74
2022/10/17 05:52:30;;;;;;;17.30;10.50;;;;;;;11.04;94.07;99772.13;215142;1281;23385;-73
2022/10/17 05:57:39;;;;;;;19.20;11.60;;;;;;;11.16;94.38;99776.98;215316;1282;22513;-73
2022/10/17 06:02:45;;;;;;;22.50;13.00;;;;;;;11.28;94.04;99780.30;215494;1278;25533;-73
2022/10/17 06:07:51;;;;;;;15.90;10.60;;;;;;;11.38;93.82;99787.11;215526;1278;22473;-74
2022/10/17 06:12:55;;;;;;;20.30;12.40;;;;;;;11.54;93.86;99793.65;215454;1277;99062;-73
2022/10/17 06:17:57;;;;;;;20.10;13.30;;;;;;;11.66;93.51;99791.77;215534;1278;99714;-74
2022/10/17 06:22:59;;;;;;;16.10;10.90;;;;;;;11.77;93.38;99796.69;214961;1278;22479;-73
2022/10/17 06:28:31;;;;;;;19.20;10.20;;;;;;;11.89;93.05;99801.28;214904;1277;24205;-73
2022/10/17 06:33:33;;;;;;;18.40;11.50;;;;;;;12.01;93.24;99806.13;215053;1278;100074;-73
2022/10/17 06:38:36;;;;;;;18.90;10.90;;;;;;;12.17;93.07;99810.17;215180;1285;100345;-73
2022/10/17 06:43:46;;;;;;;21.50;12.40;;;;;;;12.38;92.95;99821.54;214911;1277;99931;-74
2022/10/17 06:49:08;;;;;;;20.00;11.00;;;;;;;12.61;92.63;99824.67;214961;1278;100131;-73
2022/10/17 06:54:16;;;;;;;16.80;11.00;;;;;;;12.80;92.26;99829.04;214945;1278;99776;-73
2022/10/17 06:59:41;;;;;;;14.30;9.80;;;;;;;13.01;91.83;99835.86;214906;1278;101443;-73
2022/10/17 07:04:46;;;;;;;17.70;9.50;;;;;;;13.20;91.50;99842.27;215175;1278;22610;-74
2022/10/17 07:09:50;;;;;;;13.30;9.00;;;;;;;13.39;91.14;99848.02;215030;1277;99330;-73
2022/10/17 07:14:53;;;;;;;14.60;9.80;;;;;;;13.63;90.75;99852.90;215609;1285;99893;-75
2022/10/17 07:19:56;;;;;;;14.10;8.80;;;;;;;13.84;90.14;99860.20;215307;1278;99691;-72
2022/10/17 07:24:58;;;;;;;18.80;8.90;;;;;;;14.03;89.67;99853.38;215113;1278;101104;-73
2022/10/17 07:30:05;;;;;;;12.50;8.80;;;;;;;14.29;88.99;99858.77;215235;1277;100125;-73
2022/10/17 07:35:13;;;;;;;14.00;8.30;;;;;;;14.48;88.47;99864.77;215350;1285;22495;-73
2022/10/17 07:40:15;;;;;;;11.90;8.50;;;;;;;14.64;88.16;99869.61;215231;1277;100188;-72
2022/10/17 07:45:17;;;;;;;14.20;8.60;;;;;;;14.80;87.80;99870.23;215122;1277;100083;-72
2022/10/17 07:50:20;;;;;;;15.00;9.20;;;;;;;14.96;86.96;99874.23;214932;1277;100386;-73
2022/10/17 07:55:22;;;;;;;11.70;8.10;;;;;;;15.10;86.74;99868.48;215248;1278;100404;-74
2022/10/17 08:00:24;;;;;;;11.60;7.60;;;;;;;15.28;86.69;99865.48;215012;1282;100317;-74
2022/10/17 08:05:26;;;;;;;13.40;7.80;;;;;;;15.88;87.00;99868.27;215085;1278;24263;-73
2022/10/17 08:10:28;;;;;;;10.60;7.40;;;;;;;16.21;85.14;99873.76;214993;1288;99564;-73
2022/10/17 08:15:30;;;;;;;13.30;8.30;;;;;;;16.28;82.91;99869.52;215813;1277;99838;-72
2022/10/17 08:20:33;;;;;;;11.30;7.40;;;;;;;16.36;83.04;99873.84;215359;1277;100045;-74
2022/10/17 08:25:38;;;;;;;12.30;8.30;;;;;;;16.49;82.61;99875.77;215168;1277;99902;-72
2022/10/17 08:30:40;;;;;;;12.80;8.10;;;;;;;16.63;82.05;99881.21;215313;1277;100031;-73
2022/10/17 08:35:42;;;;;;;13.20;8.00;;;;;;;16.79;81.91;99887.55;214998;1283;100646;-75
2022/10/17 08:40:48;;;;;;;13.00;7.30;;;;;;;16.95;81.80;99890.98;215119;1283;22476;-75
2022/10/17 08:46:02;;;;;;;14.60;7.70;;;;;;;17.13;81.26;99897.02;215044;1277;99892;-76
2022/10/17 08:51:28;;;;;;;10.00;6.40;;;;;;;17.32;81.20;99896.52;215118;1284;99839;-74
2022/10/17 08:56:41;;;;;;;11.60;7.10;;;;;;;17.49;80.39;99898.98;215121;1277;100036;-74
2022/10/17 09:02:14;;;;;;;12.00;6.70;;;;;;;17.63;78.67;99896.38;215091;1308;100391;-74
2022/10/17 09:07:36;;;;;;;9.40;6.80;;;;;;;17.82;79.54;99893.77;215160;1280;100286;-74
2022/10/17 09:12:48;;;;;;;9.20;6.40;;;;;;;18.01;79.20;99886.14;215297;1285;101649;-76
2022/10/17 09:18:19;;;;;;;12.90;7.30;;;;;;;18.21;78.92;99884.17;215529;1301;100082;-74
2022/10/17 09:23:29;;;;;;;9.30;6.40;;;;;;;18.39;78.10;99884.98;215208;1278;22601;-73
2022/10/17 09:28:37;;;;;;;9.00;6.20;;;;;;;18.56;77.97;99884.23;215202;1294;98974;-73
2022/10/17 09:33:42;;;;;;;12.90;7.40;;;;;;;18.70;76.85;99883.95;215085;1285;99489;-74
2022/10/17 09:39:11;;;;;;;13.40;6.60;;;;;;;18.83;75.51;99888.30;214990;1285;99391;-73
2022/10/17 09:44:21;;;;;;;9.40;6.40;;;;;;;18.95;74.68;99888.02;214902;1288;101204;-72
2022/10/17 09:49:32;;;;;;;13.20;8.30;;;;;;;19.07;74.43;99890.13;215049;1309;100435;-72
2022/10/17 09:54:49;;;;;;;7.30;6.20;;;;;;;19.23;74.83;99892.34;214937;1292;100119;-75
2022/10/17 10:00:04;;;;;;;14.80;7.10;;;;;;;19.38;72.83;99885.30;215375;1280;99461;-73
2022/10/17 10:05:18;;;;;;;10.80;6.00;;;;;;;19.49;72.72;99882.84;215967;1285;22515;-74
2022/10/17 10:10:27;;;;;;;9.60;6.20;;;;;;;19.63;71.91;99886.41;215588;1285;99006;-73
2022/10/17 10:15:32;;;;;;;11.00;7.20;;;;;;;19.74;70.69;99889.27;215730;1278;99238;-72
2022/10/17 10:20:40;;;;;;;10.40;6.20;;;;;;;19.90;71.35;99892.69;215290;1309;99772;-73
2022/10/17 10:26:35;;;;;;;10.60;6.00;;;;;;;20.05;71.14;99891.24;215301;1278;99636;-73
2022/10/17 10:31:39;;;;;;;7.90;5.80;;;;;;;20.20;71.39;99889.05;215181;1277;99601;-74
2022/10/17 10:36:44;;;;;;;11.90;6.90;;;;;;;20.30;70.34;99889.02;214972;1285;99424;-74
2022/10/17 10:41:48;;;;;;;26.90;14.40;;;;;;;20.39;70.28;99883.35;215130;1309;99454;-73
2022/10/17 10:47:27;;;;;;;18.80;10.50;;;;;;;20.50;70.43;99883.65;214963;1279;25344;-73
2022/10/17 10:52:37;;;;;;;15.70;10.10;;;;;;;20.61;69.80;99877.63;215074;1285;99341;-73
2022/10/17 10:57:43;;;;;;;10.10;6.40;;;;;;;20.75;69.59;99872.20;214801;1291;100986;-73
2022/10/17 11:02:58;;;;;;;10.10;6.20;;;;;;;20.88;68.28;99872.21;215034;1281;99884;-74
2022/10/17 11:08:33;;;;;;;31.40;17.40;;;;;;;20.99;68.74;99869.45;215149;1309;99501;-74
2022/10/17 11:13:41;;;;;;;13.90;7.50;;;;;;;21.08;67.69;99869.77;215633;1277;99657;-74
2022/10/17 11:19:00;;;;;;;8.50;5.70;;;;;;;21.17;67.56;99872.67;215323;1309;99804;-74
2022/10/17 11:24:20;;;;;;;11.70;7.10;;;;;;;21.26;67.29;99866.55;215106;1285;100119;-74
2022/10/17 11:29:28;;;;;;;10.20;6.40;;;;;;;21.36;67.09;99866.52;215257;1278;25389;-73
2022/10/17 11:34:35;;;;;;;8.40;6.20;;;;;;;21.45;66.72;99871.96;215005;1287;99261;-73
2022/10/17 11:39:43;;;;;;;10.60;6.50;;;;;;;21.47;66.03;99866.08;215173;1277;100372;-73
2022/10/17 11:44:49;;;;;;;11.70;7.00;;;;;;;21.57;66.91;99860.66;215216;1277;99978;-73
2022/10/17 11:49:59;;;;;;;10.70;5.80;;;;;;;21.63;65.62;99859.88;215153;1281;100019;-74
2022/10/17 11:55:23;;;;;;;8.60;5.60;;;;;;;21.63;64.03;99856.39;215242;1277;99871;-72
2022/10/17 12:00:28;;;;;;;8.20;6.40;;;;;;;21.71;64.72;99854.84;215327;1292;99277;-71
2022/10/17 12:05:58;;;;;;;9.20;6.30;;;;;;;21.77;64.82;99850.44;215336;1285;23353;-79
2022/10/17 12:11:07;;;;;;;7.60;5.70;;;;;;;21.79;64.40;99851.15;215373;1285;22484;-73
2022/10/17 12:16:18;;;;;;;8.90;5.60;;;;;;;21.84;64.06;99852.90;216019;1285;99288;-74
2022/10/17 12:21:20;;;;;;;14.50;8.00;;;;;;;21.91;62.66;99848.10;215225;1285;99453;-80
2022/10/17 12:26:26;;;;;;;11.90;7.80;;;;;;;21.96;63.72;99842.69;215202;1277;99676;-73
2022/10/17 12:31:28;;;;;;;9.50;7.70;;;;;;;22.01;63.33;99836.45;215257;1285;99536;-73
2022/10/17 12:36:36;;;;;;;10.70;7.10;;;;;;;22.03;62.22;99836.36;215060;1285;99370;-73
2022/10/17 12:41:38;;;;;;;11.50;6.90;;;;;;;22.04;61.80;99833.77;215328;1277;99956;-72
2022/10/17 12:46:40;;;;;;;9.30;6.60;;;;;;;22.07;62.38;99831.96;215414;1285;22501;-73
2022/10/17 12:52:05;;;;;;;8.90;5.90;;;;;;;22.12;62.83;99832.27;215368;1284;100394;-71
2022/10/17 12:57:42;;;;;;;10.10;6.90;;;;;;;22.18;62.39;99828.27;215019;1284;99432;-72
2022/10/17 13:02:45;;;;;;;11.50;7.20;;;;;;;22.14;60.67;99833.59;215034;1281;99669;-71
2022/10/17 13:07:48;;;;;;;15.40;6.50;;;;;;;22.07;60.49;99830.87;215192;1288;99551;-71
2022/10/17 13:12:56;;;;;;;12.00;6.20;;;;;;;22.02;61.26;99829.23;215577;1285;99884;-71
2022/10/17 13:18:00;;;;;;;7.30;4.70;;;;;;;22.01;62.45;99832.80;215521;1288;101017;-71
2022/10/17 13:23:03;;;;;;;8.10;6.40;;;;;;;22.01;61.79;99827.65;215237;1278;24406;-71
2022/10/17 13:28:11;;;;;;;8.60;5.80;;;;;;;22.03;62.76;99830.38;215018;1285;99749;-74
2022/10/17 13:33:37;;;;;;;6.50;5.90;;;;;;;22.04;61.93;99825.01;215109;1285;99231;-72
2022/10/17 13:38:39;;;;;;;12.40;6.20;;;;;;;22.05;61.81;99818.83;215164;1285;99615;-72
2022/10/17 13:43:43;;;;;;;8.70;5.90;;;;;;;22.04;61.74;99816.53;215353;1281;99577;-73
2022/10/17 13:48:45;;;;;;;11.60;6.20;;;;;;;22.01;62.17;99812.45;215249;1278;99297;-73
2022/10/17 13:53:47;;;;;;;9.10;6.10;;;;;;;21.99;62.17;99813.39;215098;1280;99974;-73
2022/10/17 13:58:52;;;;;;;7.70;5.80;;;;;;;21.94;62.08;99812.39;215093;1284;22473;-72
2022/10/17 14:03:54;;;;;;;10.10;6.50;;;;;;;21.91;62.52;99809.92;214960;1284;23400;-72
2022/10/17 14:09:29;;;;;;;14.40;6.50;;;;;;;21.82;62.81;99812.77;214956;1309;120407;-72
2022/10/17 14:14:31;;;;;;;8.90;6.70;;;;;;;21.71;62.41;99810.05;214810;1306;22488;-72
2022/10/17 14:19:55;;;;;;;9.60;6.10;;;;;;;21.60;62.84;99809.98;214742;1309;22479;-71
2022/10/17 14:25:36;;;;;;;8.30;6.20;;;;;;;21.48;63.21;99803.16;215014;1309;22660;-72
2022/10/17 14:30:44;;;;;;;7.60;5.60;;;;;;;21.35;63.54;99807.40;214984;1308;22550;-72
2022/10/17 14:36:00;;;;;;;7.90;5.50;;;;;;;21.25;63.75;99806.86;214988;1309;22915;-72
2022/10/17 14:41:12;;;;;;;9.00;5.70;;;;;;;21.15;64.21;99810.03;214856;1309;25382;-72
2022/10/17 14:46:35;;;;;;;11.30;7.00;;;;;;;20.99;64.93;99812.82;214922;1308;22578;-71
2022/10/17 14:51:37;;;;;;;8.20;5.40;;;;;;;20.87;65.41;99815.10;214705;1309;26609;-71
2022/10/17 14:56:58;;;;;;;23.20;13.10;;;;;;;20.72;65.72;99813.59;214861;1309;22503;-72
2022/10/17 15:01:59;;;;;;;12.60;8.30;;;;;;;20.58;66.14;99814.66;214874;1309;22607;-72
2022/10/17 15:07:01;;;;;;;8.80;5.60;;;;;;;20.46;66.13;99815.15;215007;1310;24538;-72
2022/10/17 15:12:10;;;;;;;7.60;5.60;;;;;;;20.32;66.10;99808.48;214887;1309;22608;-72
2022/10/17 15:17:19;;;;;;;12.60;5.80;;;;;;;20.19;66.03;99812.16;214679;1309;22476;-72
2022/10/17 15:22:22;;;;;;;7.20;5.30;;;;;;;20.02;66.11;99803.70;214809;1300;22476;-72
2022/10/17 15:27:25;;;;;;;10.90;5.50;;;;;;;19.80;66.65;99797.70;214835;1309;22475;-72
2022/10/17 15:32:27;;;;;;;10.00;6.20;;;;;;;19.54;67.29;99795.95;214816;1309;22539;-72
2022/10/17 15:37:32;;;;;;;5.70;4.40;;;;;;;19.33;67.70;99798.70;214785;1309;22614;-72
2022/10/17 15:42:34;;;;;;;8.50;5.10;;;;;;;19.12;67.94;99798.88;214844;1309;22477;-72
2022/10/17 15:47:37;;;;;;;6.60;4.40;;;;;;;18.89;68.31;99801.02;214790;1309;22474;-71
2022/10/17 15:52:40;;;;;;;7.90;5.30;;;;;;;18.64;68.75;99802.15;214710;1309;22544;-72
2022/10/17 15:57:44;;;;;;;11.50;6.70;;;;;;;18.40;68.86;99797.61;214829;1286;22609;-72
2022/10/17 16:02:46;;;;;;;12.80;7.40;;;;;;;18.15;69.46;99795.76;214693;1309;22518;-72
2022/10/17 16:07:48;;;;;;;12.00;7.10;;;;;;;17.93;69.99;99802.41;214996;1309;24372;-71
2022/10/17 16:12:50;;;;;;;10.80;7.00;;;;;;;17.73;70.20;99804.42;214792;1308;22499;-72
2022/10/17 16:17:54;;;;;;;7.20;5.70;;;;;;;17.53;70.29;99806.92;214622;1303;22511;-72
2022/10/17 16:22:59;;;;;;;13.10;7.70;;;;;;;17.33;70.55;99809.44;214990;1309;22596;-71
2022/10/17 16:28:01;;;;;;;11.10;6.30;;;;;;;17.12;70.88;99817.67;214707;1309;24326;-71
2022/10/17 16:33:03;;;;;;;9.40;6.30;;;;;;;16.93;71.20;99814.86;214842;1309;24309;-71
2022/10/17 16:38:06;;;;;;;14.60;7.30;;;;;;;16.73;71.60;99819.30;214839;1309;23004;-71
2022/10/17 16:43:11;;;;;;;13.60;6.40;;;;;;;16.57;71.95;99821.19;214832;1309;22496;-70
2022/10/17 16:48:13;;;;;;;12.40;6.60;;;;;;;16.39;72.06;99817.54;214940;1309;22479;-71
2022/10/17 16:53:15;;;;;;;10.30;6.60;;;;;;;16.25;72.54;99819.23;214860;1310;23224;-72
2022/10/17 16:58:17;;;;;;;10.60;6.40;;;;;;;16.20;73.08;99818.55;214710;1309;25299;-71
2022/10/17 17:03:19;;;;;;;10.80;6.20;;;;;;;16.20;73.33;99816.23;214739;1309;22475;-71
2022/10/17 17:08:20;;;;;;;8.90;6.50;;;;;;;16.17;73.29;99817.00;214842;1307;23756;-71
2022/10/17 17:13:22;;;;;;;14.30;8.60;;;;;;;16.02;73.40;99815.06;214809;1308;22479;-72
2022/10/17 17:18:24;;;;;;;21.70;10.50;;;;;;;15.84;73.80;99816.36;214623;1310;25238;-72
2022/10/17 17:23:27;;;;;;;23.60;13.20;;;;;;;15.66;74.31;99806.17;214835;1297;22514;-72
2022/10/17 17:28:30;;;;;;;21.60;12.80;;;;;;;15.49;74.74;99804.23;214830;1308;22584;-72
2022/10/17 17:33:32;;;;;;;26.30;14.30;;;;;;;15.35;75.09;99803.01;214801;1309;22481;-72
2022/10/17 17:38:35;;;;;;;22.70;13.70;;;;;;;15.21;75.43;99806.03;214657;1309;25435;-71
2022/10/17 17:43:37;;;;;;;17.30;11.00;;;;;;;15.08;75.87;99807.54;214606;1308;22571;-71
2022/10/17 17:48:40;;;;;;;21.20;12.30;;;;;;;14.98;76.38;99805.80;215000;1309;25380;-72
2022/10/17 17:53:42;;;;;;;23.70;12.20;;;;;;;14.91;76.63;99801.74;214916;1310;25367;-72
2022/10/17 17:58:46;;;;;;;21.70;12.60;;;;;;;14.82;76.88;99805.80;214720;1310;25471;-70
2022/10/17 18:03:50;;;;;;;20.80;11.80;;;;;;;14.74;76.84;99807.80;215137;1310;23015;-72
2022/10/17 18:08:56;;;;;;;22.70;13.50;;;;;;;14.61;76.94;99806.54;215039;1310;22632;-72
2022/10/17 18:14:00;;;;;;;24.50;12.80;;;;;;;14.49;77.21;99811.54;214633;1310;24283;-72
2022/10/17 18:19:04;;;;;;;21.00;12.20;;;;;;;14.37;77.47;99813.58;215010;1308;22738;-71
2022/10/17 18:24:07;;;;;;;21.90;12.20;;;;;;;14.26;77.73;99814.03;214821;1310;23874;-72
2022/10/17 18:29:11;;;;;;;25.80;14.20;;;;;;;14.15;77.95;99806.86;214617;1303;22456;-72
2022/10/17 18:34:13;;;;;;;22.60;13.00;;;;;;;14.03;78.19;99807.60;214877;1308;24381;-71
2022/10/17 18:39:16;;;;;;;24.20;13.70;;;;;;;13.92;78.38;99804.27;214824;1310;22569;-71
2022/10/17 18:44:18;;;;;;;29.90;14.30;;;;;;;13.82;78.77;99807.16;214812;1308;24335;-72
2022/10/17 18:49:22;;;;;;;25.50;14.10;;;;;;;13.72;79.04;99805.64;214931;1310;25270;-71
2022/10/17 18:54:23;;;;;;;23.80;15.00;;;;;;;13.63;79.17;99805.83;214811;1310;22645;-71
2022/10/17 18:59:25;;;;;;;27.30;14.60;;;;;;;13.54;79.54;99808.00;214792;1309;22659;-71
2022/10/17 19:04:27;;;;;;;25.40;14.80;;;;;;;13.47;79.84;99810.42;214713;1309;23719;-71
2022/10/17 19:09:29;;;;;;;25.10;14.40;;;;;;;13.38;80.00;99812.22;214748;1306;23079;-70
2022/10/17 19:14:31;;;;;;;27.10;14.80;;;;;;;13.29;80.25;99808.82;214871;1309;22490;-72
2022/10/17 19:19:33;;;;;;;24.60;15.50;;;;;;;13.20;80.41;99805.71;214809;1309;24429;-71
2022/10/17 19:24:34;;;;;;;28.60;15.50;;;;;;;13.09;80.53;99804.82;214661;1309;22667;-70
2022/10/17 19:29:36;;;;;;;25.20;14.10;;;;;;;12.99;80.82;99798.33;214837;1309;22543;-71
2022/10/17 19:34:38;;;;;;;21.80;13.90;;;;;;;12.91;80.94;99803.92;214863;1306;24241;-72
2022/10/17 19:39:40;;;;;;;26.50;12.80;;;;;;;12.83;81.09;99799.55;214631;1309;24282;-70
2022/10/17 19:44:42;;;;;;;19.80;12.80;;;;;;;12.76;81.18;99800.09;214831;1309;22511;-72
2022/10/17 19:49:43;;;;;;;21.60;13.00;;;;;;;12.71;81.26;99801.29;214978;1309;22486;-71
2022/10/17 19:54:50;;;;;;;21.40;12.70;;;;;;;12.64;81.32;99800.78;214972;1310;25246;-71
2022/10/17 19:59:52;;;;;;;19.50;12.60;;;;;;;12.60;81.56;99800.92;214835;1305;22514;-72
2022/10/17 20:04:56;;;;;;;20.90;12.20;;;;;;;12.53;81.59;99806.32;214824;1308;22498;-71
2022/10/17 20:10:19;;;;;;;22.90;12.00;;;;;;;12.45;81.70;99801.36;214802;1309;24341;-72
2022/10/17 20:15:21;;;;;;;22.90;12.60;;;;;;;12.37;81.86;99800.33;214774;1306;22669;-72
2022/10/17 20:20:23;;;;;;;18.30;11.40;;;;;;;12.29;81.98;99803.23;214683;1309;22494;-71
2022/10/17 20:25:25;;;;;;;21.30;11.30;;;;;;;12.22;82.25;99796.98;214751;1309;25376;-71
2022/10/17 20:30:27;;;;;;;18.00;11.10;;;;;;;12.17;82.43;99792.48;214574;1308;22463;-71
2022/10/17 20:35:29;;;;;;;19.10;11.10;;;;;;;12.13;82.64;99793.73;214794;1308;22539;-70
2022/10/17 20:40:31;;;;;;;19.40;10.80;;;;;;;12.10;82.58;99792.40;214869;1295;22601;-70
2022/10/17 20:45:39;;;;;;;19.40;10.40;;;;;;;12.07;82.49;99785.48;214711;1309;22506;-73
2022/10/17 20:50:53;;;;;;;19.90;10.10;;;;;;;12.03;82.62;99792.05;214795;1309;22489;-72
2022/10/17 20:56:03;;;;;;;23.10;11.40;;;;;;;12.00;82.53;99792.38;214758;1309;25297;-71
2022/10/17 21:01:07;;;;;;;19.00;11.70;;;;;;;11.94;82.55;99790.39;214723;1309;22572;-71
2022/10/17 21:06:10;;;;;;;20.60;10.90;;;;;;;11.90;82.74;99791.39;214654;1309;22696;-71
2022/10/17 21:11:23;;;;;;;19.40;11.20;;;;;;;11.84;82.63;99793.08;214543;1309;22473;-71
2022/10/17 21:16:29;;;;;;;19.70;11.00;;;;;;;11.77;82.69;99792.34;214463;1309;22513;-70
2022/10/17 21:21:33;;;;;;;21.30;10.90;;;;;;;11.72;82.71;99796.00;214959;1309;22633;-72
2022/10/17 21:26:36;;;;;;;19.80;11.20;;;;;;;11.66;82.93;99792.69;214794;1309;22654;-70
2022/10/17 21:31:41;;;;;;;16.90;10.20;;;;;;;11.60;83.06;99783.61;214522;1309;23002;-71
2022/10/17 21:36:44;;;;;;;17.20;9.80;;;;;;;11.56;83.04;99783.30;214556;1309;22483;-71
2022/10/17 21:41:45;;;;;;;17.40;9.90;;;;;;;11.55;83.41;99784.16;214616;1309;25400;-71
2022/10/17 21:46:48;;;;;;;16.40;9.90;;;;;;;11.51;83.41;99782.88;214565;1301;25015;-71
2022/10/17 21:51:51;;;;;;;16.00;10.00;;;;;;;11.45;83.31;99782.88;214620;1309;23898;-71
2022/10/17 21:56:53;;;;;;;15.80;9.20;;;;;;;11.41;83.58;99776.33;214885;1309;22466;-71
2022/10/17 22:01:54;;;;;;;18.10;9.30;;;;;;;11.37;83.68;99771.39;214581;1309;25219;-71
2022/10/17 22:06:56;;;;;;;16.70;8.80;;;;;;;11.38;84.13;99772.48;214794;1309;22423;-71
2022/10/17 22:11:58;;;;;;;14.40;8.30;;;;;;;11.39;84.13;99771.61;214923;1308;24309;-71
2022/10/17 22:17:00;;;;;;;12.00;7.80;;;;;;;11.38;84.23;99768.28;214906;1309;22530;-71
2022/10/17 22:22:02;;;;;;;15.90;8.80;;;;;;;11.33;84.26;99766.79;214855;1309;25232;-71
2022/10/17 22:27:03;;;;;;;12.00;7.70;;;;;;;11.26;84.20;99767.76;214918;1307;22631;-71
2022/10/17 22:32:05;;;;;;;12.40;7.50;;;;;;;11.20;84.09;99768.29;214906;1309;22651;-71
2022/10/17 22:37:07;;;;;;;14.90;7.40;;;;;;;11.18;84.11;99760.45;214986;1309;25272;-71
2022/10/17 22:42:08;;;;;;;15.10;8.10;;;;;;;11.12;84.22;99761.58;214814;1304;22485;-71
2022/10/17 22:47:10;;;;;;;12.40;7.80;;;;;;;11.07;84.17;99758.73;214791;1309;22958;-70
2022/10/17 22:52:12;;;;;;;15.30;8.60;;;;;;;11.02;84.32;99763.29;214911;1309;22591;-71
2022/10/17 22:57:13;;;;;;;11.30;7.50;;;;;;;10.97;84.21;99765.36;214954;1309;22525;-71
2022/10/17 23:02:15;;;;;;;16.90;8.90;;;;;;;10.91;84.34;99764.02;214804;1309;25411;-71
2022/10/17 23:07:17;;;;;;;12.40;8.40;;;;;;;10.82;84.41;99760.67;214830;1309;25679;-71
2022/10/17 23:12:22;;;;;;;15.50;8.60;;;;;;;10.72;84.55;99757.40;214878;1293;22543;-71
2022/10/17 23:17:24;;;;;;;16.60;7.90;;;;;;;10.63;84.65;99757.42;214718;1309;22960;-71
2022/10/17 23:22:26;;;;;;;12.60;7.90;;;;;;;10.56;84.98;99755.05;214848;1308;22526;-71
2022/10/17 23:27:27;;;;;;;13.20;7.90;;;;;;;10.51;85.02;99753.34;214853;1309;22508;-71